CYBW

Calgary / Springbank Airport

Calgary, Alberta, Canada
METAR CYBW 201200Z AUTO 26010KT 9SM SCT080 BKN097 M05/M11 A2966 RMK SLP097
Observed Flight Rules
Jan-20 @ 12:00 UTC (an hour ago) Visual Flight Rules
Wind Visibility Clouds
260° at 10 knots 9 miles
  • Scattered at 8,000' AGL
  • Broken at 9,700' AGL
Temperatures Readings
Current -5°C / 23°F
Dewpoint -11°C / 12°F
Humidity 63%
Altimeter 29.66" Hg
Pressure 1009.7 hPa
Elevation 1200
METAR CYBW 201200Z AUTO 26010KT 9SM SCT080 BKN097 M05/M11 A2966 RMK SLP097
Observed Flight Rules
Jan-20 @ 12:00 UTC
(an hour ago)
VFR
Wind Visibility
260° at 10 knots 9 miles
Clouds
  • Scattered at 8,000' AGL
  • Broken at 9,700' AGL
Temperature Dewpoint
-5°C / 23°F -11°C / 12°F
Humidity Altimeter Pressure
63% 29.66" Hg 1009.7 hPa